Aviation Digital Data Service (ADDS)

Output produced by METARs form (1339 UTC 17 September 2019)
found at http://www.aviationweather.gov/metar/data/
 
Forecast for: ZSSS (SHANGHAI/HONGQIA, CN)
Text: TAF ZSSS 170914Z 1712/1812 02004MPS 6000 BKN020 TX29/1806Z TN23/1721Z
Forecast period: 1200 UTC 17 September 2019 to 1200 UTC 18 September 2019
Forecast type: FROM: standard forecast or significant change
Winds: from the NNE (20 degrees) at 9 MPH (8 knots; 4.1 m/s)
Visibility: 4 miles (6 km)
Ceiling: 2000 feet AGL
Clouds: broken clouds at 2000 feet AGL
Weather: no significant weather forecast for this period